sensor_id;sensor_type;location;lat;lon;timestamp;pressure;altitude;pressure_sealevel;temperature;humidity
66560;BME280;53413;49.878;8.142;2023-07-20T00:00:25;99774.09;;;16.50;91.18
66560;BME280;53413;49.878;8.142;2023-07-20T00:02:51;99770.38;;;16.40;92.87
66560;BME280;53413;49.878;8.142;2023-07-20T00:05:17;99768.22;;;16.32;92.94
66560;BME280;53413;49.878;8.142;2023-07-20T00:07:44;99780.25;;;16.23;94.95
66560;BME280;53413;49.878;8.142;2023-07-20T00:10:11;99784.34;;;16.14;95.46
66560;BME280;53413;49.878;8.142;2023-07-20T00:12:37;99783.25;;;16.04;98.40
66560;BME280;53413;49.878;8.142;2023-07-20T00:15:02;99777.81;;;15.93;99.37
66560;BME280;53413;49.878;8.142;2023-07-20T00:17:28;99777.44;;;15.84;100.00
66560;BME280;53413;49.878;8.142;2023-07-20T00:19:53;99781.38;;;15.77;100.00
66560;BME280;53413;49.878;8.142;2023-07-20T00:22:18;99780.09;;;15.70;100.00
66560;BME280;53413;49.878;8.142;2023-07-20T00:24:44;99786.59;;;15.64;100.00
66560;BME280;53413;49.878;8.142;2023-07-20T00:27:09;99787.38;;;15.52;100.00
66560;BME280;53413;49.878;8.142;2023-07-20T00:29:34;99791.53;;;15.42;100.00
66560;BME280;53413;49.878;8.142;2023-07-20T00:32:00;99785.13;;;15.31;100.00
66560;BME280;53413;49.878;8.142;2023-07-20T00:34:26;99789.72;;;15.28;100.00
66560;BME280;53413;49.878;8.142;2023-07-20T00:36:51;99788.25;;;15.23;100.00
66560;BME280;53413;49.878;8.142;2023-07-20T00:39:16;99782.66;;;15.14;100.00
66560;BME280;53413;49.878;8.142;2023-07-20T00:41:43;99793.97;;;15.01;100.00
66560;BME280;53413;49.878;8.142;2023-07-20T00:44:08;99790.94;;;14.93;100.00
66560;BME280;53413;49.878;8.142;2023-07-20T00:46:34;99801.19;;;14.83;100.00
66560;BME280;53413;49.878;8.142;2023-07-20T00:48:59;99798.84;;;14.78;100.00
66560;BME280;53413;49.878;8.142;2023-07-20T00:51:26;99794.00;;;14.71;100.00
66560;BME280;53413;49.878;8.142;2023-07-20T00:53:51;99796.88;;;14.66;100.00
66560;BME280;53413;49.878;8.142;2023-07-20T00:56:17;99804.13;;;14.62;100.00
66560;BME280;53413;49.878;8.142;2023-07-20T00:58:43;99802.81;;;14.55;100.00
66560;BME280;53413;49.878;8.142;2023-07-20T01:01:09;99799.56;;;14.50;100.00
66560;BME280;53413;49.878;8.142;2023-07-20T01:03:34;99796.44;;;14.43;100.00
66560;BME280;53413;49.878;8.142;2023-07-20T01:11:16;99800.81;;;14.28;100.00
66560;BME280;53413;49.878;8.142;2023-07-20T01:13:43;99799.28;;;14.24;100.00
66560;BME280;53413;49.878;8.142;2023-07-20T01:16:09;99792.56;;;14.19;100.00
66560;BME280;53413;49.878;8.142;2023-07-20T01:18:34;99788.41;;;14.14;100.00
66560;BME280;53413;49.878;8.142;2023-07-20T01:21:06;99789.53;;;14.10;100.00
66560;BME280;53413;49.878;8.142;2023-07-20T01:24:18;99790.63;;;14.06;100.00
66560;BME280;53413;49.878;8.142;2023-07-20T01:32:16;99804.34;;;13.97;100.00
66560;BME280;53413;49.878;8.142;2023-07-20T01:34:44;99798.47;;;13.92;100.00
66560;BME280;53413;49.878;8.142;2023-07-20T01:37:10;99795.25;;;13.87;100.00
66560;BME280;53413;49.878;8.142;2023-07-20T01:39:37;99798.13;;;13.82;100.00
66560;BME280;53413;49.878;8.142;2023-07-20T01:42:03;99792.53;;;13.72;100.00
66560;BME280;53413;49.878;8.142;2023-07-20T01:44:29;99796.44;;;13.65;100.00
66560;BME280;53413;49.878;8.142;2023-07-20T01:46:54;99796.75;;;13.59;100.00
66560;BME280;53413;49.878;8.142;2023-07-20T01:49:20;99785.69;;;13.52;100.00
66560;BME280;53413;49.878;8.142;2023-07-20T01:51:45;99791.22;;;13.47;100.00
66560;BME280;53413;49.878;8.142;2023-07-20T01:54:10;99784.50;;;13.42;100.00
66560;BME280;53413;49.878;8.142;2023-07-20T01:56:35;99787.34;;;13.37;100.00
66560;BME280;53413;49.878;8.142;2023-07-20T01:59:01;99787.34;;;13.37;100.00
66560;BME280;53413;49.878;8.142;2023-07-20T02:01:26;99782.25;;;13.34;100.00
66560;BME280;53413;49.878;8.142;2023-07-20T02:03:53;99786.72;;;13.32;100.00
66560;BME280;53413;49.878;8.142;2023-07-20T02:06:19;99790.28;;;13.31;100.00
66560;BME280;53413;49.878;8.142;2023-07-20T02:08:44;99787.84;;;13.28;100.00
66560;BME280;53413;49.878;8.142;2023-07-20T02:11:10;99783.56;;;13.25;100.00
66560;BME280;53413;49.878;8.142;2023-07-20T02:13:35;99794.28;;;13.22;100.00
66560;BME280;53413;49.878;8.142;2023-07-20T02:16:01;99786.53;;;13.19;100.00
66560;BME280;53413;49.878;8.142;2023-07-20T02:18:26;99790.25;;;13.15;100.00
66560;BME280;53413;49.878;8.142;2023-07-20T02:20:53;99787.78;;;13.12;100.00
66560;BME280;53413;49.878;8.142;2023-07-20T02:23:19;99788.81;;;13.09;100.00
66560;BME280;53413;49.878;8.142;2023-07-20T02:25:44;99795.19;;;13.05;100.00
66560;BME280;53413;49.878;8.142;2023-07-20T02:28:14;99793.63;;;13.01;100.00
66560;BME280;53413;49.878;8.142;2023-07-20T02:30:39;99792.00;;;12.98;100.00
66560;BME280;53413;49.878;8.142;2023-07-20T02:33:05;99795.72;;;12.94;100.00
66560;BME280;53413;49.878;8.142;2023-07-20T02:35:32;99798.59;;;12.89;100.00
66560;BME280;53413;49.878;8.142;2023-07-20T02:37:57;99797.03;;;12.85;100.00
66560;BME280;53413;49.878;8.142;2023-07-20T02:40:22;99803.22;;;12.84;100.00
66560;BME280;53413;49.878;8.142;2023-07-20T02:42:48;99798.81;;;12.85;100.00
66560;BME280;53413;49.878;8.142;2023-07-20T02:45:13;99795.34;;;12.84;100.00
66560;BME280;53413;49.878;8.142;2023-07-20T02:47:38;99795.34;;;12.84;100.00
66560;BME280;53413;49.878;8.142;2023-07-20T02:50:07;99799.75;;;12.84;100.00
66560;BME280;53413;49.878;8.142;2023-07-20T02:52:33;99797.03;;;12.85;100.00
66560;BME280;53413;49.878;8.142;2023-07-20T02:54:58;99803.16;;;12.86;100.00
66560;BME280;53413;49.878;8.142;2023-07-20T02:57:25;99799.81;;;12.82;100.00
66560;BME280;53413;49.878;8.142;2023-07-20T02:59:50;99800.91;;;12.78;100.00
66560;BME280;53413;49.878;8.142;2023-07-20T03:02:15;99802.84;;;12.74;100.00
66560;BME280;53413;49.878;8.142;2023-07-20T03:04:41;99805.69;;;12.70;100.00
66560;BME280;53413;49.878;8.142;2023-07-20T03:07:06;99803.31;;;12.65;100.00
66560;BME280;53413;49.878;8.142;2023-07-20T03:09:34;99798.13;;;12.63;100.00
66560;BME280;53413;49.878;8.142;2023-07-20T03:12:00;99796.56;;;12.59;100.00
66560;BME280;53413;49.878;8.142;2023-07-20T03:14:26;99797.69;;;12.55;100.00
66560;BME280;53413;49.878;8.142;2023-07-20T03:16:51;99797.91;;;12.51;100.00
66560;BME280;53413;49.878;8.142;2023-07-20T03:19:16;99798.75;;;12.51;100.00
66560;BME280;53413;49.878;8.142;2023-07-20T03:21:42;99805.00;;;12.49;100.00
66560;BME280;53413;49.878;8.142;2023-07-20T03:24:08;99801.75;;;12.43;100.00
66560;BME280;53413;49.878;8.142;2023-07-20T03:26:34;99807.22;;;12.39;100.00
66560;BME280;53413;49.878;8.142;2023-07-20T03:29:00;99805.75;;;12.33;100.00
66560;BME280;53413;49.878;8.142;2023-07-20T03:31:25;99805.97;;;12.28;100.00
66560;BME280;53413;49.878;8.142;2023-07-20T03:33:52;99813.09;;;12.26;100.00
66560;BME280;53413;49.878;8.142;2023-07-20T03:36:17;99814.09;;;12.24;100.00
66560;BME280;53413;49.878;8.142;2023-07-20T03:38:42;99816.84;;;12.21;100.00
66560;BME280;53413;49.878;8.142;2023-07-20T03:41:08;99814.47;;;12.16;100.00
66560;BME280;53413;49.878;8.142;2023-07-20T03:43:35;99822.41;;;12.14;100.00
66560;BME280;53413;49.878;8.142;2023-07-20T03:46:01;99823.41;;;12.12;100.00
66560;BME280;53413;49.878;8.142;2023-07-20T03:48:26;99825.88;;;12.15;100.00
66560;BME280;53413;49.878;8.142;2023-07-20T03:50:53;99822.94;;;12.21;100.00
66560;BME280;53413;49.878;8.142;2023-07-20T03:53:19;99825.28;;;12.27;100.00
66560;BME280;53413;49.878;8.142;2023-07-20T03:55:51;99818.91;;;12.33;100.00
66560;BME280;53413;49.878;8.142;2023-07-20T03:58:18;99822.22;;;12.37;100.00
66560;BME280;53413;49.878;8.142;2023-07-20T04:00:50;99816.69;;;12.43;100.00
66560;BME280;53413;49.878;8.142;2023-07-20T04:03:16;99822.53;;;12.48;100.00
66560;BME280;53413;49.878;8.142;2023-07-20T04:05:43;99815.34;;;12.52;100.00
66560;BME280;53413;49.878;8.142;2023-07-20T04:08:08;99821.09;;;12.60;100.00
66560;BME280;53413;49.878;8.142;2023-07-20T04:10:34;99813.75;;;12.67;100.00
66560;BME280;53413;49.878;8.142;2023-07-20T04:13:00;99817.84;;;12.72;100.00
66560;BME280;53413;49.878;8.142;2023-07-20T04:15:25;99814.91;;;12.78;100.00
66560;BME280;53413;49.878;8.142;2023-07-20T04:17:51;99815.53;;;12.84;100.00
66560;BME280;53413;49.878;8.142;2023-07-20T04:20:16;99814.38;;;12.89;100.00
66560;BME280;53413;49.878;8.142;2023-07-20T04:22:43;99822.78;;;12.96;100.00
66560;BME280;53413;49.878;8.142;2023-07-20T04:25:08;99822.31;;;13.05;100.00
66560;BME280;53413;49.878;8.142;2023-07-20T04:27:35;99811.06;;;13.19;100.00
66560;BME280;53413;49.878;8.142;2023-07-20T04:30:01;99822.66;;;13.33;100.00
66560;BME280;53413;49.878;8.142;2023-07-20T04:32:27;99821.88;;;13.48;100.00
66560;BME280;53413;49.878;8.142;2023-07-20T04:34:52;99825.56;;;13.62;100.00
66560;BME280;53413;49.878;8.142;2023-07-20T04:37:17;99825.81;;;13.73;100.00
66560;BME280;53413;49.878;8.142;2023-07-20T04:39:43;99825.16;;;13.85;100.00
66560;BME280;53413;49.878;8.142;2023-07-20T04:42:08;99817.50;;;13.97;100.00
66560;BME280;53413;49.878;8.142;2023-07-20T04:44:34;99821.06;;;14.12;100.00
66560;BME280;53413;49.878;8.142;2023-07-20T04:46:59;99827.19;;;14.28;100.00
66560;BME280;53413;49.878;8.142;2023-07-20T04:49:24;99823.56;;;14.45;100.00
66560;BME280;53413;49.878;8.142;2023-07-20T04:51:51;99825.13;;;14.64;100.00
66560;BME280;53413;49.878;8.142;2023-07-20T04:54:16;99824.88;;;14.85;100.00
66560;BME280;53413;49.878;8.142;2023-07-20T04:56:42;99817.66;;;15.03;100.00
66560;BME280;53413;49.878;8.142;2023-07-20T04:59:07;99819.81;;;15.25;100.00
66560;BME280;53413;49.878;8.142;2023-07-20T05:01:32;99819.44;;;15.46;100.00
66560;BME280;53413;49.878;8.142;2023-07-20T05:03:58;99811.13;;;15.66;100.00
66560;BME280;53413;49.878;8.142;2023-07-20T05:06:23;99812.63;;;15.85;100.00
66560;BME280;53413;49.878;8.142;2023-07-20T05:08:48;99810.72;;;16.02;100.00
66560;BME280;53413;49.878;8.142;2023-07-20T05:11:14;99821.78;;;16.21;100.00
66560;BME280;53413;49.878;8.142;2023-07-20T05:13:40;99826.09;;;16.37;100.00
66560;BME280;53413;49.878;8.142;2023-07-20T05:16:05;99825.91;;;16.53;100.00
66560;BME280;53413;49.878;8.142;2023-07-20T05:18:30;99820.69;;;16.66;100.00
66560;BME280;53413;49.878;8.142;2023-07-20T05:20:56;99810.94;;;16.79;100.00
66560;BME280;53413;49.878;8.142;2023-07-20T05:23:21;99818.03;;;16.91;100.00
66560;BME280;53413;49.878;8.142;2023-07-20T05:25:53;99823.28;;;17.06;100.00
66560;BME280;53413;49.878;8.142;2023-07-20T05:28:19;99820.53;;;17.20;100.00
66560;BME280;53413;49.878;8.142;2023-07-20T05:30:44;99823.28;;;17.32;100.00
66560;BME280;53413;49.878;8.142;2023-07-20T05:33:09;99818.09;;;17.43;100.00
66560;BME280;53413;49.878;8.142;2023-07-20T05:35:36;99818.81;;;17.58;100.00
66560;BME280;53413;49.878;8.142;2023-07-20T05:38:01;99818.69;;;17.73;100.00
66560;BME280;53413;49.878;8.142;2023-07-20T05:40:27;99823.22;;;17.83;100.00
66560;BME280;53413;49.878;8.142;2023-07-20T05:42:52;99818.00;;;17.95;100.00
66560;BME280;53413;49.878;8.142;2023-07-20T05:45:19;99826.78;;;18.08;100.00
66560;BME280;53413;49.878;8.142;2023-07-20T05:47:46;99825.44;;;18.27;100.00
66560;BME280;53413;49.878;8.142;2023-07-20T05:50:11;99827.22;;;18.51;100.00
66560;BME280;53413;49.878;8.142;2023-07-20T05:52:36;99833.13;;;20.05;95.94
66560;BME280;53413;49.878;8.142;2023-07-20T05:55:04;99825.38;;;24.86;69.07
66560;BME280;53413;49.878;8.142;2023-07-20T05:57:30;99827.78;;;28.77;53.69
66560;BME280;53413;49.878;8.142;2023-07-20T05:59:55;99840.84;;;31.65;45.77
66560;BME280;53413;49.878;8.142;2023-07-20T06:02:20;99845.34;;;33.81;40.11
66560;BME280;53413;49.878;8.142;2023-07-20T06:04:46;99843.63;;;35.34;36.42
66560;BME280;53413;49.878;8.142;2023-07-20T06:07:11;99855.06;;;36.71;34.58
66560;BME280;53413;49.878;8.142;2023-07-20T06:09:36;99853.34;;;37.65;31.97
66560;BME280;53413;49.878;8.142;2023-07-20T06:12:02;99854.34;;;38.46;30.80
66560;BME280;53413;49.878;8.142;2023-07-20T06:14:27;99858.38;;;39.29;29.83
66560;BME280;53413;49.878;8.142;2023-07-20T06:16:53;99859.84;;;40.03;28.50
66560;BME280;53413;49.878;8.142;2023-07-20T06:19:18;99862.56;;;40.58;27.98
66560;BME280;53413;49.878;8.142;2023-07-20T06:21:43;99853.44;;;41.28;27.21
66560;BME280;53413;49.878;8.142;2023-07-20T06:24:09;99850.72;;;42.02;26.07
66560;BME280;53413;49.878;8.142;2023-07-20T06:26:34;99853.78;;;42.21;25.84
66560;BME280;53413;49.878;8.142;2023-07-20T06:29:07;99850.22;;;42.77;25.06
66560;BME280;53413;49.878;8.142;2023-07-20T06:31:34;99844.66;;;43.18;24.55
66560;BME280;53413;49.878;8.142;2023-07-20T06:34:00;99850.03;;;43.49;24.15
66560;BME280;53413;49.878;8.142;2023-07-20T06:36:26;99851.09;;;43.69;23.71
66560;BME280;53413;49.878;8.142;2023-07-20T06:38:52;99848.50;;;43.83;23.84
66560;BME280;53413;49.878;8.142;2023-07-20T06:41:18;99855.72;;;44.58;22.76
66560;BME280;53413;49.878;8.142;2023-07-20T06:43:44;99854.69;;;45.08;22.64
66560;BME280;53413;49.878;8.142;2023-07-20T06:46:09;99857.94;;;45.83;22.02
66560;BME280;53413;49.878;8.142;2023-07-20T06:48:34;99856.06;;;46.17;21.36
66560;BME280;53413;49.878;8.142;2023-07-20T06:51:00;99848.53;;;46.36;21.19
66560;BME280;53413;49.878;8.142;2023-07-20T06:53:25;99845.56;;;46.66;21.14
66560;BME280;53413;49.878;8.142;2023-07-20T06:55:51;99849.00;;;46.91;20.50
66560;BME280;53413;49.878;8.142;2023-07-20T06:58:17;99850.88;;;47.09;20.64
66560;BME280;53413;49.878;8.142;2023-07-20T07:00:43;99845.59;;;47.63;20.23
66560;BME280;53413;49.878;8.142;2023-07-20T07:03:09;99845.59;;;48.23;19.70
66560;BME280;53413;49.878;8.142;2023-07-20T07:05:38;99853.88;;;48.14;19.36
66560;BME280;53413;49.878;8.142;2023-07-20T07:08:06;99845.72;;;48.18;19.12
66560;BME280;53413;49.878;8.142;2023-07-20T07:10:33;99852.06;;;48.64;19.26
66560;BME280;53413;49.878;8.142;2023-07-20T07:12:58;99853.78;;;48.74;19.45
66560;BME280;53413;49.878;8.142;2023-07-20T07:15:23;99852.22;;;48.90;18.75
66560;BME280;53413;49.878;8.142;2023-07-20T07:17:49;99855.69;;;48.96;18.78
66560;BME280;53413;49.878;8.142;2023-07-20T07:20:15;99859.44;;;48.60;19.02
66560;BME280;53413;49.878;8.142;2023-07-20T07:22:40;99854.72;;;49.00;18.54
66560;BME280;53413;49.878;8.142;2023-07-20T07:25:09;99848.84;;;49.42;18.39
66560;BME280;53413;49.878;8.142;2023-07-20T07:27:34;99856.41;;;50.03;18.30
66560;BME280;53413;49.878;8.142;2023-07-20T07:30:00;99855.38;;;49.55;18.09
66560;BME280;53413;49.878;8.142;2023-07-20T07:32:26;99848.50;;;46.22;20.45
66560;BME280;53413;49.878;8.142;2023-07-20T07:34:52;99841.84;;;46.23;20.19
66560;BME280;53413;49.878;8.142;2023-07-20T07:37:17;99842.69;;;48.51;18.79
66560;BME280;53413;49.878;8.142;2023-07-20T07:39:44;99853.19;;;49.26;18.70
66560;BME280;53413;49.878;8.142;2023-07-20T07:42:10;99841.56;;;46.72;20.17
66560;BME280;53413;49.878;8.142;2023-07-20T07:44:36;99844.81;;;47.21;19.33
66560;BME280;53413;49.878;8.142;2023-07-20T07:47:01;99856.72;;;45.27;21.04
66560;BME280;53413;49.878;8.142;2023-07-20T07:49:27;99837.44;;;41.67;23.64
66560;BME280;53413;49.878;8.142;2023-07-20T07:51:52;99843.34;;;38.92;26.72
66560;BME280;53413;49.878;8.142;2023-07-20T07:54:18;99843.66;;;36.74;28.59
66560;BME280;53413;49.878;8.142;2023-07-20T07:56:43;99843.31;;;35.05;30.86
66560;BME280;53413;49.878;8.142;2023-07-20T07:59:09;99852.97;;;34.50;31.39
66560;BME280;53413;49.878;8.142;2023-07-20T08:01:35;99845.47;;;34.38;31.86
66560;BME280;53413;49.878;8.142;2023-07-20T08:04:00;99858.72;;;33.96;32.31
66560;BME280;53413;49.878;8.142;2023-07-20T08:06:25;99848.63;;;35.18;31.02
66560;BME280;53413;49.878;8.142;2023-07-20T08:08:51;99848.53;;;38.59;27.15
66560;BME280;53413;49.878;8.142;2023-07-20T08:11:16;99852.97;;;42.82;23.66
66560;BME280;53413;49.878;8.142;2023-07-20T08:13:43;99851.13;;;45.94;20.41
66560;BME280;53413;49.878;8.142;2023-07-20T08:16:08;99840.53;;;47.66;19.72
66560;BME280;53413;49.878;8.142;2023-07-20T08:18:33;99847.44;;;47.12;19.91
66560;BME280;53413;49.878;8.142;2023-07-20T08:20:59;99844.28;;;47.84;19.59
66560;BME280;53413;49.878;8.142;2023-07-20T08:23:24;99860.19;;;45.38;20.89
66560;BME280;53413;49.878;8.142;2023-07-20T08:25:49;99854.38;;;41.44;24.16
66560;BME280;53413;49.878;8.142;2023-07-20T08:28:15;99854.75;;;38.38;26.61
66560;BME280;53413;49.878;8.142;2023-07-20T08:30:46;99844.03;;;40.15;25.77
66560;BME280;53413;49.878;8.142;2023-07-20T08:33:18;99846.97;;;43.61;22.04
66560;BME280;53413;49.878;8.142;2023-07-20T08:35:45;99854.47;;;45.04;20.96
66560;BME280;53413;49.878;8.142;2023-07-20T08:38:11;99845.25;;;45.58;20.48
66560;BME280;53413;49.878;8.142;2023-07-20T08:40:41;99850.53;;;48.26;18.52
66560;BME280;53413;49.878;8.142;2023-07-20T08:43:06;99852.44;;;49.03;18.61
66560;BME280;53413;49.878;8.142;2023-07-20T08:45:36;99841.19;;;46.93;18.90
66560;BME280;53413;49.878;8.142;2023-07-20T08:48:03;99853.50;;;45.63;19.91
66560;BME280;53413;49.878;8.142;2023-07-20T08:50:30;99843.28;;;43.05;21.87
66560;BME280;53413;49.878;8.142;2023-07-20T08:52:57;99839.34;;;39.83;24.29
66560;BME280;53413;49.878;8.142;2023-07-20T08:55:24;99836.34;;;39.63;24.93
66560;BME280;53413;49.878;8.142;2023-07-20T08:57:53;99831.50;;;42.53;22.57
66560;BME280;53413;49.878;8.142;2023-07-20T09:00:20;99825.28;;;45.99;20.52
66560;BME280;53413;49.878;8.142;2023-07-20T09:02:49;99826.88;;;48.60;18.52
66560;BME280;53413;49.878;8.142;2023-07-20T09:05:16;99833.75;;;50.22;17.83
66560;BME280;53413;49.878;8.142;2023-07-20T09:07:42;99836.09;;;48.69;17.92
66560;BME280;53413;49.878;8.142;2023-07-20T09:10:08;99836.69;;;45.11;20.10
66560;BME280;53413;49.878;8.142;2023-07-20T09:12:41;99827.50;;;41.66;23.04
66560;BME280;53413;49.878;8.142;2023-07-20T09:15:08;99829.88;;;39.96;24.30
66560;BME280;53413;49.878;8.142;2023-07-20T09:17:35;99826.78;;;39.43;24.87
66560;BME280;53413;49.878;8.142;2023-07-20T09:20:03;99832.31;;;37.66;26.86
66560;BME280;53413;49.878;8.142;2023-07-20T09:22:33;99828.13;;;37.75;26.51
66560;BME280;53413;49.878;8.142;2023-07-20T09:24:58;99826.00;;;37.01;27.53
66560;BME280;53413;49.878;8.142;2023-07-20T09:27:34;99830.91;;;36.02;28.66
66560;BME280;53413;49.878;8.142;2023-07-20T09:30:01;99819.44;;;38.70;25.78
66560;BME280;53413;49.878;8.142;2023-07-20T09:32:27;99832.00;;;41.24;23.77
66560;BME280;53413;49.878;8.142;2023-07-20T09:34:52;99836.78;;;40.59;24.17
66560;BME280;53413;49.878;8.142;2023-07-20T09:37:22;99831.34;;;38.98;25.17
66560;BME280;53413;49.878;8.142;2023-07-20T09:39:51;99829.56;;;37.01;27.31
66560;BME280;53413;49.878;8.142;2023-07-20T09:42:17;99830.97;;;34.77;29.89
66560;BME280;53413;49.878;8.142;2023-07-20T09:44:44;99829.25;;;33.34;32.10
66560;BME280;53413;49.878;8.142;2023-07-20T09:47:10;99829.97;;;32.07;33.25
66560;BME280;53413;49.878;8.142;2023-07-20T09:49:41;99833.19;;;31.33;34.36
66560;BME280;53413;49.878;8.142;2023-07-20T09:52:08;99825.88;;;30.70;35.08
66560;BME280;53413;49.878;8.142;2023-07-20T09:54:37;99833.22;;;30.55;35.83
66560;BME280;53413;49.878;8.142;2023-07-20T09:57:03;99827.19;;;31.10;35.24
66560;BME280;53413;49.878;8.142;2023-07-20T09:59:29;99824.97;;;31.13;34.53
66560;BME280;53413;49.878;8.142;2023-07-20T10:01:58;99826.56;;;31.08;35.61
66560;BME280;53413;49.878;8.142;2023-07-20T10:04:26;99825.94;;;30.77;36.10
66560;BME280;53413;49.878;8.142;2023-07-20T10:06:55;99816.03;;;30.41;36.13
66560;BME280;53413;49.878;8.142;2023-07-20T10:09:22;99817.22;;;29.95;37.44
66560;BME280;53413;49.878;8.142;2023-07-20T10:11:50;99812.19;;;30.14;37.03
66560;BME280;53413;49.878;8.142;2023-07-20T10:14:19;99811.47;;;31.62;35.13
66560;BME280;53413;49.878;8.142;2023-07-20T10:16:50;99805.44;;;34.20;31.47
66560;BME280;53413;49.878;8.142;2023-07-20T10:19:25;99808.34;;;35.46;29.85
66560;BME280;53413;49.878;8.142;2023-07-20T10:22:10;99804.59;;;35.58;29.40
66560;BME280;53413;49.878;8.142;2023-07-20T10:24:38;99808.81;;;34.98;30.30
66560;BME280;53413;49.878;8.142;2023-07-20T10:27:05;99805.09;;;34.42;30.98
66560;BME280;53413;49.878;8.142;2023-07-20T10:29:30;99802.28;;;33.85;31.56
66560;BME280;53413;49.878;8.142;2023-07-20T10:31:57;99801.13;;;34.06;31.16
66560;BME280;53413;49.878;8.142;2023-07-20T10:34:22;99794.25;;;34.03;31.04
66560;BME280;53413;49.878;8.142;2023-07-20T10:36:48;99788.72;;;33.78;31.38
66560;BME280;53413;49.878;8.142;2023-07-20T10:39:27;99793.34;;;32.98;32.25
66560;BME280;53413;49.878;8.142;2023-07-20T10:42:03;99789.16;;;32.15;33.66
66560;BME280;53413;49.878;8.142;2023-07-20T10:44:31;99791.16;;;31.86;34.21
66560;BME280;53413;49.878;8.142;2023-07-20T10:47:01;99787.72;;;31.57;34.36
66560;BME280;53413;49.878;8.142;2023-07-20T10:49:28;99782.81;;;31.32;34.99
66560;BME280;53413;49.878;8.142;2023-07-20T10:51:58;99773.41;;;31.28;35.65
66560;BME280;53413;49.878;8.142;2023-07-20T10:56:55;99769.75;;;31.43;34.81
66560;BME280;53413;49.878;8.142;2023-07-20T11:01:49;99774.31;;;31.42;34.50
66560;BME280;53413;49.878;8.142;2023-07-20T11:04:16;99779.88;;;31.27;34.81
66560;BME280;53413;49.878;8.142;2023-07-20T11:06:44;99774.94;;;31.09;34.72
66560;BME280;53413;49.878;8.142;2023-07-20T11:09:11;99777.47;;;30.82;35.19
66560;BME280;53413;49.878;8.142;2023-07-20T11:11:40;99774.00;;;30.60;35.49
66560;BME280;53413;49.878;8.142;2023-07-20T11:14:07;99774.69;;;30.47;34.81
66560;BME280;53413;49.878;8.142;2023-07-20T11:16:40;99766.06;;;30.37;36.30
66560;BME280;53413;49.878;8.142;2023-07-20T11:19:19;99773.38;;;30.36;35.72
66560;BME280;53413;49.878;8.142;2023-07-20T11:21:46;99768.00;;;30.43;37.02
66560;BME280;53413;49.878;8.142;2023-07-20T11:24:12;99766.44;;;30.77;35.54
66560;BME280;53413;49.878;8.142;2023-07-20T11:26:52;99763.50;;;31.49;33.29
66560;BME280;53413;49.878;8.142;2023-07-20T11:29:20;99759.50;;;32.07;33.00
66560;BME280;53413;49.878;8.142;2023-07-20T11:31:47;99758.94;;;32.32;32.54
66560;BME280;53413;49.878;8.142;2023-07-20T11:34:17;99758.28;;;32.09;34.11
66560;BME280;53413;49.878;8.142;2023-07-20T11:36:47;99764.19;;;31.65;34.07
66560;BME280;53413;49.878;8.142;2023-07-20T11:39:14;99772.59;;;31.35;34.19
66560;BME280;53413;49.878;8.142;2023-07-20T11:41:47;99758.50;;;31.11;34.16
66560;BME280;53413;49.878;8.142;2023-07-20T11:44:13;99760.06;;;31.20;33.70
66560;BME280;53413;49.878;8.142;2023-07-20T11:46:41;99762.13;;;31.18;34.50
66560;BME280;53413;49.878;8.142;2023-07-20T11:49:07;99751.94;;;31.20;34.13
66560;BME280;53413;49.878;8.142;2023-07-20T11:51:33;99759.22;;;31.20;34.55
66560;BME280;53413;49.878;8.142;2023-07-20T11:53:58;99753.78;;;31.20;34.16
66560;BME280;53413;49.878;8.142;2023-07-20T11:56:25;99749.41;;;30.83;34.49
66560;BME280;53413;49.878;8.142;2023-07-20T11:58:54;99742.38;;;30.61;35.07
66560;BME280;53413;49.878;8.142;2023-07-20T12:01:20;99742.41;;;29.95;35.17
66560;BME280;53413;49.878;8.142;2023-07-20T12:03:47;99737.34;;;29.71;36.14
66560;BME280;53413;49.878;8.142;2023-07-20T12:06:13;99737.44;;;29.62;36.55
66560;BME280;53413;49.878;8.142;2023-07-20T12:08:42;99734.09;;;29.60;36.96
66560;BME280;53413;49.878;8.142;2023-07-20T12:11:09;99728.75;;;29.45;36.99
66560;BME280;53413;49.878;8.142;2023-07-20T12:13:57;99730.78;;;29.43;36.86
66560;BME280;53413;49.878;8.142;2023-07-20T12:16:26;99729.97;;;30.01;36.60
66560;BME280;53413;49.878;8.142;2023-07-20T12:19:00;99728.63;;;30.34;35.38
66560;BME280;53413;49.878;8.142;2023-07-20T12:21:27;99728.81;;;30.54;34.83
66560;BME280;53413;49.878;8.142;2023-07-20T12:23:52;99729.56;;;30.48;35.22
66560;BME280;53413;49.878;8.142;2023-07-20T12:26:21;99725.06;;;30.55;35.98
66560;BME280;53413;49.878;8.142;2023-07-20T12:28:49;99728.34;;;30.50;35.31
66560;BME280;53413;49.878;8.142;2023-07-20T12:31:14;99716.66;;;30.50;35.67
66560;BME280;53413;49.878;8.142;2023-07-20T12:33:40;99721.69;;;30.53;36.08
66560;BME280;53413;49.878;8.142;2023-07-20T12:36:07;99717.25;;;30.67;35.08
66560;BME280;53413;49.878;8.142;2023-07-20T12:38:33;99717.53;;;30.79;34.29
66560;BME280;53413;49.878;8.142;2023-07-20T12:41:00;99719.25;;;30.86;34.52
66560;BME280;53413;49.878;8.142;2023-07-20T12:43:26;99719.75;;;30.68;33.88
66560;BME280;53413;49.878;8.142;2023-07-20T12:45:52;99715.03;;;30.27;35.60
66560;BME280;53413;49.878;8.142;2023-07-20T12:48:17;99710.50;;;30.06;35.05
66560;BME280;53413;49.878;8.142;2023-07-20T12:50:43;99703.91;;;29.72;35.27
66560;BME280;53413;49.878;8.142;2023-07-20T12:53:08;99706.72;;;29.63;36.29
66560;BME280;53413;49.878;8.142;2023-07-20T12:55:33;99696.50;;;29.59;36.09
66560;BME280;53413;49.878;8.142;2023-07-20T12:57:59;99704.91;;;29.49;36.12
66560;BME280;53413;49.878;8.142;2023-07-20T13:00:24;99697.59;;;29.28;35.72
66560;BME280;53413;49.878;8.142;2023-07-20T13:02:50;99693.31;;;29.33;36.27
66560;BME280;53413;49.878;8.142;2023-07-20T13:05:16;99698.97;;;29.75;35.31
66560;BME280;53413;49.878;8.142;2023-07-20T13:07:41;99694.00;;;30.22;34.00